EJU36XM LPFR-LSGG
Flight info
| Callsign | EJU36XM |
|---|---|
| Flight time | N/A |
| Altitude | 36000 |
| Route | NIRAK Y136 NAPES N747 PIMUR M30 HIJ N10 VTB N871 TOPTU DCT TOU DCT GAI DCT MEN/N0408F300 DCT NINUN DCT LATAM DCT ETREK DCT LUXAN G53 LTP Z16 BELUS |
| Aircraft | A320/M-SDE2E3FGHIJ1RWXYZ/LB1 |
Departure
| Time | 2026-04-27 09:34 |
|---|---|
| Airport | Faro - Gago Coutinho International Airport (LPFR) |
Arrival
| Time | N/A |
|---|---|
| Airport | Geneva International Airport (LSGG) |
| Time | Latitude | Longitude | Altitude | Speed | Heading |
|---|---|---|---|---|---|
| 2026-04-27 09:15 | 37.01904 | -7.96697 | 29 ft | 0 kts | 8° |
| 2026-04-27 09:23 | 37.01897 | -7.96698 | 29 ft | 2 kts | 8° |
| 2026-04-27 09:23 | 37.01881 | -7.96701 | 29 ft | 2 kts | 8° |
| 2026-04-27 09:24 | 37.01866 | -7.96704 | 29 ft | 2 kts | 8° |
| 2026-04-27 09:24 | 37.01851 | -7.96706 | 29 ft | 2 kts | 8° |
| 2026-04-27 09:24 | 37.01836 | -7.96709 | 29 ft | 2 kts | 8° |
| 2026-04-27 09:24 | 37.01820 | -7.96715 | 29 ft | 2 kts | 45° |
| 2026-04-27 09:25 | 37.01813 | -7.96732 | 29 ft | 2 kts | 86° |
| 2026-04-27 09:25 | 37.01814 | -7.96741 | 29 ft | 1 kts | 106° |
| 2026-04-27 09:25 | 37.01815 | -7.96746 | 29 ft | 0 kts | 101° |
| 2026-04-27 09:28 | 37.01808 | -7.96704 | 28 ft | 9 kts | 101° |
| 2026-04-27 09:28 | 37.01788 | -7.96591 | 29 ft | 15 kts | 102° |
| 2026-04-27 09:29 | 37.01726 | -7.96526 | 29 ft | 10 kts | 186° |
| 2026-04-27 09:29 | 37.01662 | -7.96538 | 29 ft | 9 kts | 189° |
| 2026-04-27 09:29 | 37.01628 | -7.96595 | 28 ft | 10 kts | 276° |
| 2026-04-27 09:29 | 37.01640 | -7.96695 | 29 ft | 13 kts | 283° |
| 2026-04-27 09:30 | 37.01663 | -7.96833 | 29 ft | 15 kts | 282° |
| 2026-04-27 09:30 | 37.01684 | -7.96974 | 28 ft | 15 kts | 278° |
| 2026-04-27 09:30 | 37.01701 | -7.97114 | 28 ft | 16 kts | 279° |
| 2026-04-27 09:30 | 37.01719 | -7.97251 | 29 ft | 16 kts | 279° |
| 2026-04-27 09:31 | 37.01738 | -7.97391 | 28 ft | 16 kts | 280° |
| 2026-04-27 09:31 | 37.01758 | -7.97530 | 28 ft | 16 kts | 280° |
| 2026-04-27 09:31 | 37.01780 | -7.97676 | 28 ft | 17 kts | 281° |
| 2026-04-27 09:31 | 37.01803 | -7.97823 | 29 ft | 17 kts | 281° |
| 2026-04-27 09:32 | 37.01825 | -7.97973 | 29 ft | 17 kts | 279° |
| 2026-04-27 09:32 | 37.01845 | -7.98125 | 28 ft | 18 kts | 280° |
| 2026-04-27 09:32 | 37.01868 | -7.98280 | 29 ft | 18 kts | 281° |
| 2026-04-27 09:32 | 37.01891 | -7.98435 | 28 ft | 17 kts | 278° |
| 2026-04-27 09:33 | 37.01866 | -7.98562 | 29 ft | 15 kts | 214° |
| 2026-04-27 09:33 | 37.01762 | -7.98588 | 28 ft | 13 kts | 187° |
| 2026-04-27 09:33 | 37.01714 | -7.98509 | 28 ft | 17 kts | 99° |
| 2026-04-27 09:33 | 37.01651 | -7.98059 | 29 ft | 87 kts | 100° |
| 2026-04-27 09:34 | 37.01503 | -7.97034 | 29 ft | 147 kts | 100° |
| 2026-04-27 09:34 | 37.01305 | -7.95696 | 385 ft | 162 kts | 99° |
| 2026-04-27 09:34 | 37.01109 | -7.94282 | 986 ft | 167 kts | 99° |
| 2026-04-27 09:34 | 37.00899 | -7.92819 | 1482 ft | 181 kts | 99° |
| 2026-04-27 09:35 | 37.00663 | -7.91192 | 1925 ft | 197 kts | 100° |
| 2026-04-27 09:35 | 37.00407 | -7.89439 | 2383 ft | 214 kts | 100° |
| 2026-04-27 09:35 | 37.00133 | -7.87561 | 2997 ft | 224 kts | 100° |
| 2026-04-27 09:35 | 36.99856 | -7.85662 | 3865 ft | 224 kts | 101° |
| 2026-04-27 09:36 | 36.99576 | -7.83744 | 4661 ft | 226 kts | 101° |
| 2026-04-27 09:36 | 36.99495 | -7.81797 | 5401 ft | 231 kts | 78° |
| 2026-04-27 09:36 | 37.00202 | -7.79988 | 6011 ft | 243 kts | 54° |
| 2026-04-27 09:36 | 37.01314 | -7.78264 | 6469 ft | 261 kts | 52° |
| 2026-04-27 09:37 | 37.02508 | -7.76478 | 6961 ft | 275 kts | 52° |
| 2026-04-27 09:37 | 37.03731 | -7.74633 | 7692 ft | 280 kts | 52° |
| 2026-04-27 09:37 | 37.04974 | -7.72739 | 8472 ft | 282 kts | 52° |
| 2026-04-27 09:37 | 37.06217 | -7.70829 | 9218 ft | 285 kts | 52° |
| 2026-04-27 09:38 | 37.07461 | -7.68919 | 9944 ft | 288 kts | 52° |
| 2026-04-27 09:38 | 37.08754 | -7.66959 | 10567 ft | 296 kts | 51° |
| 2026-04-27 09:38 | 37.10091 | -7.64939 | 10916 ft | 312 kts | 51° |
| 2026-04-27 09:38 | 37.11500 | -7.62806 | 11499 ft | 319 kts | 51° |
| 2026-04-27 09:39 | 37.12903 | -7.60681 | 12198 ft | 321 kts | 51° |
| 2026-04-27 09:39 | 37.14333 | -7.58514 | 12867 ft | 324 kts | 51° |
| 2026-04-27 09:39 | 37.15773 | -7.56327 | 13515 ft | 327 kts | 51° |
| 2026-04-27 09:39 | 37.17210 | -7.54142 | 14143 ft | 329 kts | 51° |
| 2026-04-27 09:40 | 37.18667 | -7.51923 | 14759 ft | 332 kts | 51° |
| 2026-04-27 09:40 | 37.20149 | -7.49663 | 15363 ft | 335 kts | 51° |
| 2026-04-27 09:40 | 37.21626 | -7.47411 | 15947 ft | 337 kts | 51° |
| 2026-04-27 09:40 | 37.23088 | -7.45126 | 16511 ft | 340 kts | 57° |
| 2026-04-27 09:41 | 37.24080 | -7.42436 | 17026 ft | 341 kts | 77° |
| 2026-04-27 09:41 | 37.24235 | -7.39494 | 17571 ft | 341 kts | 96° |
| 2026-04-27 09:41 | 37.23902 | -7.36559 | 18131 ft | 342 kts | 99° |
| 2026-04-27 09:41 | 37.23501 | -7.33538 | 18646 ft | 345 kts | 100° |
| 2026-04-27 09:42 | 37.23109 | -7.30583 | 19146 ft | 348 kts | 99° |
| 2026-04-27 09:42 | 37.22716 | -7.27552 | 19653 ft | 350 kts | 99° |
| 2026-04-27 09:42 | 37.22334 | -7.24553 | 20140 ft | 352 kts | 99° |
| 2026-04-27 09:42 | 37.21950 | -7.21511 | 20620 ft | 355 kts | 99° |
| 2026-04-27 09:43 | 37.21566 | -7.18459 | 21091 ft | 357 kts | 99° |
| 2026-04-27 09:43 | 37.21176 | -7.15358 | 21565 ft | 359 kts | 99° |
| 2026-04-27 09:43 | 37.20790 | -7.12287 | 22028 ft | 360 kts | 99° |
| 2026-04-27 09:43 | 37.20401 | -7.09197 | 22482 ft | 362 kts | 100° |
| 2026-04-27 09:44 | 37.20039 | -7.06042 | 22922 ft | 364 kts | 96° |
| 2026-04-27 09:44 | 37.19972 | -7.02881 | 23341 ft | 368 kts | 89° |
| 2026-04-27 09:44 | 37.20264 | -6.99713 | 23743 ft | 372 kts | 81° |
| 2026-04-27 09:44 | 37.20818 | -6.96522 | 23980 ft | 375 kts | 79° |
| 2026-04-27 09:45 | 37.21424 | -6.93336 | 23982 ft | 375 kts | 79° |
| 2026-04-27 09:45 | 37.22031 | -6.90161 | 23996 ft | 376 kts | 79° |
| 2026-04-27 09:45 | 37.22643 | -6.86929 | 24292 ft | 380 kts | 79° |
| 2026-04-27 09:45 | 37.23248 | -6.83708 | 24769 ft | 379 kts | 79° |
| 2026-04-27 09:46 | 37.23851 | -6.80482 | 25177 ft | 381 kts | 79° |
| 2026-04-27 09:46 | 37.24455 | -6.77245 | 25543 ft | 383 kts | 79° |
| 2026-04-27 09:46 | 37.25056 | -6.74015 | 25905 ft | 384 kts | 79° |
| 2026-04-27 09:46 | 37.25667 | -6.70728 | 26268 ft | 386 kts | 79° |
| 2026-04-27 09:47 | 37.26279 | -6.67426 | 26616 ft | 388 kts | 79° |
| 2026-04-27 09:47 | 37.26885 | -6.64144 | 26949 ft | 389 kts | 79° |
| 2026-04-27 09:47 | 37.27491 | -6.60857 | 27279 ft | 391 kts | 79° |
| 2026-04-27 09:47 | 37.28110 | -6.57504 | 27606 ft | 393 kts | 79° |
| 2026-04-27 09:48 | 37.28979 | -6.54272 | 27883 ft | 399 kts | 66° |
| 2026-04-27 09:48 | 37.30532 | -6.51359 | 28166 ft | 407 kts | 51° |
| 2026-04-27 09:48 | 37.32717 | -6.49001 | 28458 ft | 415 kts | 37° |
| 2026-04-27 09:48 | 37.35142 | -6.47060 | 28769 ft | 417 kts | 35° |
| 2026-04-27 09:49 | 37.37626 | -6.45158 | 29041 ft | 419 kts | 34° |
| 2026-04-27 09:49 | 37.40104 | -6.43262 | 29308 ft | 421 kts | 34° |
| 2026-04-27 09:49 | 37.42590 | -6.41345 | 29573 ft | 422 kts | 35° |
| 2026-04-27 09:49 | 37.45095 | -6.39401 | 29833 ft | 424 kts | 35° |
| 2026-04-27 09:50 | 37.47582 | -6.37463 | 30082 ft | 425 kts | 35° |
| 2026-04-27 09:50 | 37.50118 | -6.35481 | 30334 ft | 426 kts | 35° |
| 2026-04-27 09:50 | 37.52611 | -6.33529 | 30584 ft | 427 kts | 36° |
| 2026-04-27 09:50 | 37.55129 | -6.31554 | 30836 ft | 429 kts | 36° |
| 2026-04-27 09:51 | 37.57658 | -6.29567 | 31073 ft | 430 kts | 36° |
| 2026-04-27 09:51 | 37.60216 | -6.27556 | 31306 ft | 431 kts | 36° |
| 2026-04-27 09:51 | 37.62761 | -6.25554 | 31522 ft | 433 kts | 36° |
| 2026-04-27 09:51 | 37.65311 | -6.23545 | 31737 ft | 434 kts | 36° |
| 2026-04-27 09:52 | 37.67844 | -6.21548 | 31947 ft | 435 kts | 36° |
| 2026-04-27 09:52 | 37.70437 | -6.19503 | 32158 ft | 436 kts | 36° |
| 2026-04-27 09:52 | 37.73004 | -6.17475 | 32357 ft | 437 kts | 36° |
| 2026-04-27 09:52 | 37.75574 | -6.15442 | 32555 ft | 438 kts | 36° |
| 2026-04-27 09:53 | 37.78150 | -6.13402 | 32739 ft | 439 kts | 36° |
| 2026-04-27 09:53 | 37.80740 | -6.11350 | 32921 ft | 440 kts | 36° |
| 2026-04-27 09:53 | 37.83331 | -6.09296 | 33106 ft | 441 kts | 36° |
| 2026-04-27 09:53 | 37.85930 | -6.07235 | 33347 ft | 440 kts | 36° |
| 2026-04-27 09:54 | 37.88507 | -6.05165 | 33598 ft | 438 kts | 38° |
| 2026-04-27 09:54 | 37.90976 | -6.02974 | 33846 ft | 435 kts | 41° |
| 2026-04-27 09:54 | 37.93326 | -6.00623 | 34069 ft | 433 kts | 44° |
| 2026-04-27 09:54 | 37.95555 | -5.98113 | 34269 ft | 431 kts | 47° |
| 2026-04-27 09:55 | 37.97693 | -5.95406 | 34431 ft | 429 kts | 51° |
| 2026-04-27 09:55 | 37.99661 | -5.92605 | 34575 ft | 429 kts | 54° |
| 2026-04-27 09:55 | 38.03398 | -5.86695 | 34859 ft | 429 kts | 55° |
| 2026-04-27 09:56 | 38.05235 | -5.83745 | 34988 ft | 430 kts | 55° |
| 2026-04-27 09:56 | 38.07075 | -5.80790 | 35119 ft | 430 kts | 55° |
| 2026-04-27 09:56 | 38.08938 | -5.77801 | 35264 ft | 430 kts | 55° |
| 2026-04-27 09:56 | 38.10798 | -5.74815 | 35385 ft | 431 kts | 55° |
| 2026-04-27 09:57 | 38.12653 | -5.71840 | 35497 ft | 431 kts | 55° |
| 2026-04-27 09:57 | 38.14507 | -5.68862 | 35612 ft | 432 kts | 55° |
| 2026-04-27 09:57 | 38.16357 | -5.65889 | 35719 ft | 432 kts | 55° |
| 2026-04-27 09:57 | 38.18224 | -5.62886 | 35814 ft | 432 kts | 55° |
| 2026-04-27 09:58 | 38.21954 | -5.56879 | 35993 ft | 433 kts | 55° |
| 2026-04-27 09:58 | 38.25676 | -5.50874 | 36024 ft | 434 kts | 55° |
| 2026-04-27 09:59 | 38.29397 | -5.44859 | 36031 ft | 434 kts | 55° |
| 2026-04-27 09:59 | 38.33122 | -5.38827 | 36035 ft | 434 kts | 55° |
| 2026-04-27 10:00 | 38.36843 | -5.32787 | 36037 ft | 434 kts | 56° |
| 2026-04-27 10:00 | 38.40552 | -5.26755 | 36036 ft | 433 kts | 56° |
| 2026-04-27 10:01 | 38.44271 | -5.20690 | 36036 ft | 434 kts | 56° |
| 2026-04-27 10:01 | 38.47973 | -5.14645 | 36036 ft | 434 kts | 56° |
| 2026-04-27 10:02 | 38.51877 | -5.08758 | 36036 ft | 436 kts | 50° |
| 2026-04-27 10:02 | 38.56171 | -5.03278 | 36036 ft | 438 kts | 48° |
| 2026-04-27 10:03 | 38.60509 | -4.97855 | 36035 ft | 438 kts | 48° |
| 2026-04-27 10:03 | 38.64877 | -4.92375 | 36035 ft | 440 kts | 48° |
| 2026-04-27 10:04 | 38.69230 | -4.86897 | 36035 ft | 441 kts | 49° |
| 2026-04-27 10:04 | 38.73612 | -4.81366 | 36035 ft | 443 kts | 49° |
| 2026-04-27 10:05 | 38.78001 | -4.75817 | 36036 ft | 444 kts | 49° |
| 2026-04-27 10:05 | 38.82404 | -4.70237 | 36036 ft | 444 kts | 49° |
| 2026-04-27 10:06 | 38.86774 | -4.64689 | 36036 ft | 444 kts | 49° |
| 2026-04-27 10:06 | 38.91177 | -4.59083 | 36030 ft | 448 kts | 48° |
| 2026-04-27 10:07 | 38.95606 | -4.53432 | 36031 ft | 454 kts | 47° |
| 2026-04-27 10:07 | 39.00137 | -4.47650 | 36083 ft | 460 kts | 46° |
| 2026-04-27 10:08 | 39.04690 | -4.41832 | 36168 ft | 464 kts | 45° |
| 2026-04-27 10:08 | 39.09232 | -4.36031 | 36215 ft | 464 kts | 45° |
| 2026-04-27 10:09 | 39.13802 | -4.30178 | 36237 ft | 463 kts | 45° |
| 2026-04-27 10:09 | 39.18368 | -4.24308 | 36248 ft | 463 kts | 45° |
| 2026-04-27 10:10 | 39.22925 | -4.18436 | 36253 ft | 463 kts | 45° |
| 2026-04-27 10:10 | 39.27462 | -4.12577 | 36254 ft | 463 kts | 45° |
| 2026-04-27 10:11 | 39.32027 | -4.06670 | 36254 ft | 463 kts | 45° |
| 2026-04-27 10:11 | 39.36543 | -4.00815 | 36254 ft | 463 kts | 45° |
| 2026-04-27 10:12 | 39.41085 | -3.94913 | 36254 ft | 463 kts | 45° |
| 2026-04-27 10:12 | 39.45620 | -3.89008 | 36254 ft | 463 kts | 45° |
| 2026-04-27 10:13 | 39.50149 | -3.83096 | 36254 ft | 463 kts | 45° |
| 2026-04-27 10:13 | 39.54681 | -3.77169 | 36254 ft | 463 kts | 45° |
| 2026-04-27 10:14 | 39.59217 | -3.71237 | 36254 ft | 463 kts | 45° |
| 2026-04-27 10:14 | 39.63757 | -3.65292 | 36254 ft | 463 kts | 45° |
| 2026-04-27 10:15 | 39.68265 | -3.59367 | 36254 ft | 463 kts | 45° |
| 2026-04-27 10:15 | 39.72764 | -3.53439 | 36254 ft | 463 kts | 45° |
| 2026-04-27 10:16 | 39.77417 | -3.47659 | 36253 ft | 464 kts | 40° |
| 2026-04-27 10:16 | 39.82544 | -3.42572 | 36254 ft | 464 kts | 33° |
| 2026-04-27 10:17 | 39.87909 | -3.37961 | 36254 ft | 464 kts | 33° |
| 2026-04-27 10:17 | 39.93297 | -3.33360 | 36253 ft | 464 kts | 33° |
| 2026-04-27 10:18 | 39.98654 | -3.28758 | 36254 ft | 464 kts | 33° |
| 2026-04-27 10:18 | 40.04045 | -3.24107 | 36254 ft | 464 kts | 33° |
| 2026-04-27 10:19 | 40.09405 | -3.19471 | 36254 ft | 464 kts | 33° |
| 2026-04-27 10:19 | 40.14762 | -3.14826 | 36254 ft | 464 kts | 33° |
| 2026-04-27 10:20 | 40.20138 | -3.10155 | 36254 ft | 463 kts | 33° |
| 2026-04-27 10:20 | 40.25492 | -3.05494 | 36254 ft | 463 kts | 33° |
| 2026-04-27 10:21 | 40.30820 | -3.00859 | 36254 ft | 462 kts | 33° |
| 2026-04-27 10:21 | 40.36170 | -2.96194 | 36254 ft | 461 kts | 33° |
| 2026-04-27 10:22 | 40.41492 | -2.91539 | 36254 ft | 461 kts | 33° |
| 2026-04-27 10:22 | 40.46794 | -2.86890 | 36234 ft | 459 kts | 33° |
| 2026-04-27 10:23 | 40.52105 | -2.82224 | 36183 ft | 460 kts | 33° |
| 2026-04-27 10:23 | 40.57428 | -2.77537 | 36150 ft | 460 kts | 33° |
| 2026-04-27 10:24 | 40.62733 | -2.72857 | 36133 ft | 460 kts | 33° |
| 2026-04-27 10:24 | 40.68031 | -2.68173 | 36125 ft | 460 kts | 33° |
| 2026-04-27 10:25 | 40.73337 | -2.63474 | 36121 ft | 460 kts | 33° |
| 2026-04-27 10:25 | 40.78638 | -2.58769 | 36119 ft | 460 kts | 33° |
| 2026-04-27 10:26 | 40.83936 | -2.54056 | 36119 ft | 460 kts | 33° |
| 2026-04-27 10:26 | 40.89212 | -2.49353 | 36119 ft | 460 kts | 33° |
| 2026-04-27 10:27 | 40.94524 | -2.44606 | 36118 ft | 460 kts | 33° |
| 2026-04-27 10:27 | 40.99807 | -2.39874 | 36115 ft | 463 kts | 33° |
| 2026-04-27 10:28 | 41.05022 | -2.34800 | 36117 ft | 470 kts | 37° |
| 2026-04-27 10:28 | 41.10187 | -2.29324 | 36123 ft | 477 kts | 37° |
| 2026-04-27 10:29 | 41.15381 | -2.23786 | 36134 ft | 481 kts | 36° |
| 2026-04-27 10:29 | 41.20577 | -2.18256 | 36141 ft | 481 kts | 36° |
| 2026-04-27 10:30 | 41.25770 | -2.12718 | 36140 ft | 481 kts | 36° |
| 2026-04-27 10:30 | 41.31004 | -2.07123 | 36133 ft | 481 kts | 36° |
| 2026-04-27 10:31 | 41.36180 | -2.01576 | 36126 ft | 481 kts | 36° |
| 2026-04-27 10:31 | 41.41389 | -1.95982 | 36122 ft | 481 kts | 36° |
| 2026-04-27 10:32 | 41.46579 | -1.90398 | 36120 ft | 481 kts | 36° |
| 2026-04-27 10:32 | 41.51773 | -1.84797 | 36119 ft | 481 kts | 36° |
| 2026-04-27 10:33 | 41.56971 | -1.79179 | 36119 ft | 481 kts | 36° |
| 2026-04-27 10:33 | 41.62166 | -1.73552 | 36119 ft | 481 kts | 36° |
| 2026-04-27 10:34 | 41.67341 | -1.67936 | 36119 ft | 481 kts | 36° |
| 2026-04-27 10:34 | 41.72544 | -1.62277 | 36119 ft | 481 kts | 36° |
| 2026-04-27 10:35 | 41.77697 | -1.56659 | 36119 ft | 481 kts | 36° |
| 2026-04-27 10:35 | 41.82873 | -1.51005 | 36119 ft | 481 kts | 36° |
| 2026-04-27 10:36 | 41.88052 | -1.45334 | 36119 ft | 481 kts | 36° |
| 2026-04-27 10:36 | 41.93229 | -1.39652 | 36119 ft | 481 kts | 36° |
| 2026-04-27 10:37 | 41.98385 | -1.33980 | 36117 ft | 481 kts | 37° |
| 2026-04-27 10:37 | 42.03579 | -1.28252 | 36119 ft | 481 kts | 37° |
| 2026-04-27 10:38 | 42.08744 | -1.22542 | 36119 ft | 481 kts | 37° |
| 2026-04-27 10:38 | 42.13888 | -1.16857 | 36119 ft | 480 kts | 37° |
| 2026-04-27 10:39 | 42.19046 | -1.11145 | 36120 ft | 479 kts | 37° |
| 2026-04-27 10:39 | 42.24164 | -1.05457 | 36120 ft | 477 kts | 37° |
| 2026-04-27 10:40 | 42.29254 | -0.99784 | 36121 ft | 475 kts | 37° |
| 2026-04-27 10:40 | 42.34313 | -0.94131 | 36124 ft | 473 kts | 36° |
| 2026-04-27 10:41 | 42.39370 | -0.88441 | 36130 ft | 474 kts | 38° |
| 2026-04-27 10:41 | 42.44102 | -0.82181 | 36137 ft | 477 kts | 45° |
| 2026-04-27 10:42 | 42.48290 | -0.75212 | 36143 ft | 477 kts | 50° |
| 2026-04-27 10:42 | 42.52313 | -0.68060 | 36144 ft | 477 kts | 50° |
| 2026-04-27 10:43 | 42.56339 | -0.60914 | 36145 ft | 477 kts | 50° |
| 2026-04-27 10:43 | 42.60348 | -0.53812 | 36146 ft | 477 kts | 50° |
| 2026-04-27 10:44 | 42.64393 | -0.46638 | 36148 ft | 477 kts | 50° |
| 2026-04-27 10:44 | 42.68416 | -0.39487 | 36154 ft | 477 kts | 50° |
| 2026-04-27 10:45 | 42.72446 | -0.32304 | 36159 ft | 477 kts | 51° |
| 2026-04-27 10:45 | 42.76457 | -0.25132 | 36167 ft | 477 kts | 51° |
| 2026-04-27 10:46 | 42.80503 | -0.17989 | 36170 ft | 477 kts | 49° |
| 2026-04-27 10:46 | 42.84693 | -0.11029 | 36172 ft | 477 kts | 48° |
| 2026-04-27 10:47 | 42.88917 | -0.04033 | 36171 ft | 477 kts | 48° |
| 2026-04-27 10:47 | 42.93111 | 0.02958 | 36168 ft | 482 kts | 47° |
| 2026-04-27 10:48 | 42.97387 | 0.10114 | 36168 ft | 487 kts | 47° |
| 2026-04-27 10:48 | 43.01679 | 0.17308 | 36168 ft | 494 kts | 46° |
| 2026-04-27 10:49 | 43.06013 | 0.24590 | 36169 ft | 497 kts | 46° |
| 2026-04-27 10:49 | 43.10365 | 0.31912 | 36170 ft | 497 kts | 46° |
| 2026-04-27 10:50 | 43.14719 | 0.39259 | 36171 ft | 497 kts | 46° |
| 2026-04-27 10:50 | 43.19064 | 0.46614 | 36173 ft | 497 kts | 46° |
| 2026-04-27 10:51 | 43.23428 | 0.54020 | 36171 ft | 497 kts | 46° |
| 2026-04-27 10:51 | 43.27741 | 0.61360 | 36172 ft | 497 kts | 46° |
| 2026-04-27 10:52 | 43.32062 | 0.68731 | 36166 ft | 497 kts | 46° |
| 2026-04-27 10:52 | 43.36406 | 0.76161 | 36160 ft | 497 kts | 46° |
| 2026-04-27 10:53 | 43.42858 | 0.87230 | 36152 ft | 497 kts | 46° |
| 2026-04-27 10:54 | 43.47172 | 0.94659 | 36149 ft | 497 kts | 46° |
| 2026-04-27 10:54 | 43.51493 | 1.02121 | 36149 ft | 496 kts | 46° |
| 2026-04-27 10:55 | 43.55770 | 1.09529 | 36148 ft | 493 kts | 46° |
| 2026-04-27 10:55 | 43.60005 | 1.16879 | 36149 ft | 489 kts | 46° |
| 2026-04-27 10:56 | 43.64202 | 1.24182 | 36148 ft | 486 kts | 46° |
| 2026-04-27 10:56 | 43.68408 | 1.31519 | 36147 ft | 486 kts | 46° |
| 2026-04-27 10:57 | 43.72436 | 1.38959 | 36147 ft | 487 kts | 48° |
| 2026-04-27 10:57 | 43.76434 | 1.46513 | 36147 ft | 487 kts | 48° |
| 2026-04-27 10:58 | 43.80453 | 1.54087 | 36147 ft | 487 kts | 47° |
| 2026-04-27 10:58 | 43.84462 | 1.61647 | 36147 ft | 487 kts | 47° |
| 2026-04-27 10:59 | 43.88469 | 1.69217 | 36146 ft | 487 kts | 49° |
| 2026-04-27 10:59 | 43.92454 | 1.76774 | 36147 ft | 488 kts | 48° |
| 2026-04-27 11:00 | 43.98396 | 1.88252 | 36147 ft | 488 kts | 50° |
| 2026-04-27 11:00 | 44.02245 | 1.95997 | 36147 ft | 488 kts | 50° |
| 2026-04-27 11:01 | 44.06088 | 2.03750 | 36148 ft | 488 kts | 50° |
| 2026-04-27 11:01 | 44.09941 | 2.11529 | 36152 ft | 488 kts | 50° |
| 2026-04-27 11:02 | 44.13789 | 2.19310 | 36158 ft | 488 kts | 50° |
| 2026-04-27 11:02 | 44.17614 | 2.27063 | 36164 ft | 488 kts | 50° |
| 2026-04-27 11:03 | 44.21460 | 2.34884 | 36168 ft | 488 kts | 50° |
| 2026-04-27 11:03 | 44.25273 | 2.42653 | 36170 ft | 488 kts | 50° |
| 2026-04-27 11:04 | 44.29110 | 2.50496 | 36172 ft | 488 kts | 50° |
| 2026-04-27 11:04 | 44.32911 | 2.58287 | 36172 ft | 488 kts | 50° |
| 2026-04-27 11:05 | 44.36717 | 2.66109 | 36170 ft | 487 kts | 51° |
| 2026-04-27 11:05 | 44.40542 | 2.73986 | 36171 ft | 488 kts | 51° |
| 2026-04-27 11:06 | 44.44351 | 2.81860 | 36172 ft | 488 kts | 51° |
| 2026-04-27 11:06 | 44.48136 | 2.89708 | 36171 ft | 488 kts | 51° |
| 2026-04-27 11:07 | 44.51891 | 2.97521 | 36173 ft | 485 kts | 50° |
| 2026-04-27 11:07 | 44.55618 | 3.05300 | 36172 ft | 481 kts | 50° |
| 2026-04-27 11:08 | 44.59337 | 3.13073 | 36164 ft | 477 kts | 49° |
| 2026-04-27 11:08 | 44.62801 | 3.20976 | 36156 ft | 480 kts | 54° |
| 2026-04-27 11:09 | 44.66072 | 3.29146 | 36150 ft | 480 kts | 54° |
| 2026-04-27 11:09 | 44.69313 | 3.37291 | 36148 ft | 480 kts | 54° |
| 2026-04-27 11:10 | 44.72574 | 3.45476 | 36147 ft | 480 kts | 54° |
| 2026-04-27 11:10 | 44.75828 | 3.53662 | 36147 ft | 480 kts | 54° |
| 2026-04-27 11:11 | 44.79074 | 3.61825 | 36147 ft | 480 kts | 54° |
| 2026-04-27 11:11 | 44.82309 | 3.69979 | 36146 ft | 480 kts | 55° |
| 2026-04-27 11:12 | 44.83950 | 3.74128 | 35945 ft | 480 kts | 55° |
| 2026-04-27 11:12 | 44.85544 | 3.78171 | 35698 ft | 478 kts | 55° |
| 2026-04-27 11:12 | 44.87162 | 3.82283 | 35447 ft | 476 kts | 55° |
| 2026-04-27 11:12 | 44.88754 | 3.86336 | 35197 ft | 473 kts | 55° |
| 2026-04-27 11:13 | 44.90325 | 3.90342 | 34949 ft | 472 kts | 55° |
| 2026-04-27 11:13 | 44.91918 | 3.94406 | 34698 ft | 471 kts | 54° |
| 2026-04-27 11:13 | 44.93491 | 3.98425 | 34450 ft | 472 kts | 55° |
| 2026-04-27 11:13 | 44.95067 | 4.02457 | 34186 ft | 473 kts | 55° |
| 2026-04-27 11:14 | 44.96664 | 4.06551 | 33795 ft | 474 kts | 55° |
| 2026-04-27 11:14 | 44.98246 | 4.10616 | 33268 ft | 475 kts | 55° |
| 2026-04-27 11:14 | 44.99818 | 4.14661 | 32618 ft | 476 kts | 55° |
| 2026-04-27 11:14 | 45.01408 | 4.18758 | 31958 ft | 476 kts | 55° |
| 2026-04-27 11:15 | 45.02981 | 4.22821 | 31487 ft | 471 kts | 55° |
| 2026-04-27 11:15 | 45.04547 | 4.26864 | 31007 ft | 467 kts | 55° |
| 2026-04-27 11:15 | 45.06087 | 4.30837 | 30521 ft | 463 kts | 55° |
| 2026-04-27 11:15 | 45.07637 | 4.34844 | 30029 ft | 460 kts | 55° |
| 2026-04-27 11:16 | 45.09156 | 4.38777 | 29543 ft | 456 kts | 55° |
| 2026-04-27 11:16 | 45.10649 | 4.42652 | 29062 ft | 453 kts | 55° |
| 2026-04-27 11:16 | 45.12145 | 4.46542 | 28578 ft | 450 kts | 55° |
| 2026-04-27 11:16 | 45.13641 | 4.50441 | 28096 ft | 447 kts | 55° |
| 2026-04-27 11:17 | 45.15101 | 4.54251 | 27639 ft | 443 kts | 55° |
| 2026-04-27 11:17 | 45.16575 | 4.58104 | 27183 ft | 439 kts | 55° |
| 2026-04-27 11:17 | 45.18012 | 4.61865 | 26758 ft | 435 kts | 55° |
| 2026-04-27 11:17 | 45.19443 | 4.65610 | 26327 ft | 430 kts | 56° |
| 2026-04-27 11:18 | 45.20860 | 4.69312 | 25879 ft | 427 kts | 56° |
| 2026-04-27 11:18 | 45.22252 | 4.72957 | 25434 ft | 423 kts | 56° |
| 2026-04-27 11:18 | 45.23639 | 4.76597 | 24993 ft | 419 kts | 56° |
| 2026-04-27 11:18 | 45.25021 | 4.80232 | 24550 ft | 416 kts | 56° |
| 2026-04-27 11:19 | 45.26385 | 4.83821 | 24118 ft | 412 kts | 56° |
| 2026-04-27 11:19 | 45.27742 | 4.87395 | 23697 ft | 409 kts | 57° |
| 2026-04-27 11:19 | 45.29063 | 4.90881 | 23290 ft | 405 kts | 57° |
| 2026-04-27 11:19 | 45.30382 | 4.94371 | 22880 ft | 401 kts | 57° |
| 2026-04-27 11:20 | 45.31043 | 4.96124 | 22673 ft | 399 kts | 58° |